sensor_id;sensor_type;location;lat;lon;timestamp;temperature;humidity
11126;DHT22;5617;54.046;10.676;2022-12-10T00:01:14;-0.50;99.90
11126;DHT22;5617;54.046;10.676;2022-12-10T00:03:22;-0.50;99.90
11126;DHT22;5617;54.046;10.676;2022-12-10T00:05:32;-0.50;99.90
11126;DHT22;5617;54.046;10.676;2022-12-10T00:07:40;-0.50;99.90
11126;DHT22;5617;54.046;10.676;2022-12-10T00:09:46;-0.50;99.90
11126;DHT22;5617;54.046;10.676;2022-12-10T00:11:53;-0.50;99.90
11126;DHT22;5617;54.046;10.676;2022-12-10T00:14:00;-0.50;99.90
11126;DHT22;5617;54.046;10.676;2022-12-10T00:16:09;-0.50;99.90
11126;DHT22;5617;54.046;10.676;2022-12-10T00:18:16;-0.50;99.90
11126;DHT22;5617;54.046;10.676;2022-12-10T00:20:23;-0.50;99.90
11126;DHT22;5617;54.046;10.676;2022-12-10T00:22:31;-0.50;99.90
11126;DHT22;5617;54.046;10.676;2022-12-10T00:24:38;-0.50;99.90
11126;DHT22;5617;54.046;10.676;2022-12-10T00:26:45;-0.50;99.90
11126;DHT22;5617;54.046;10.676;2022-12-10T00:28:53;-0.50;99.90
11126;DHT22;5617;54.046;10.676;2022-12-10T00:31:04;-0.40;99.90
11126;DHT22;5617;54.046;10.676;2022-12-10T00:33:11;-0.40;99.90
11126;DHT22;5617;54.046;10.676;2022-12-10T00:35:18;-0.40;99.90
11126;DHT22;5617;54.046;10.676;2022-12-10T00:37:25;-0.40;99.90
11126;DHT22;5617;54.046;10.676;2022-12-10T00:39:33;-0.40;99.90
11126;DHT22;5617;54.046;10.676;2022-12-10T00:41:40;-0.40;99.90
11126;DHT22;5617;54.046;10.676;2022-12-10T00:43:47;-0.40;99.90
11126;DHT22;5617;54.046;10.676;2022-12-10T00:45:54;-0.40;99.90
11126;DHT22;5617;54.046;10.676;2022-12-10T00:48:01;-0.40;99.90
11126;DHT22;5617;54.046;10.676;2022-12-10T00:50:08;-0.40;99.90
11126;DHT22;5617;54.046;10.676;2022-12-10T00:52:15;-0.40;99.90
11126;DHT22;5617;54.046;10.676;2022-12-10T00:54:22;-0.40;99.90
11126;DHT22;5617;54.046;10.676;2022-12-10T00:56:32;-0.30;99.90
11126;DHT22;5617;54.046;10.676;2022-12-10T00:58:39;-0.30;99.90
11126;DHT22;5617;54.046;10.676;2022-12-10T01:00:46;-0.30;99.90
11126;DHT22;5617;54.046;10.676;2022-12-10T01:02:53;-0.20;99.90
11126;DHT22;5617;54.046;10.676;2022-12-10T01:05:01;-0.20;99.90
11126;DHT22;5617;54.046;10.676;2022-12-10T01:07:08;-0.30;99.90
11126;DHT22;5617;54.046;10.676;2022-12-10T01:09:19;-0.20;99.90
11126;DHT22;5617;54.046;10.676;2022-12-10T01:11:29;-0.20;99.90
11126;DHT22;5617;54.046;10.676;2022-12-10T01:13:38;-0.20;99.90
11126;DHT22;5617;54.046;10.676;2022-12-10T01:15:45;-0.20;99.90
11126;DHT22;5617;54.046;10.676;2022-12-10T01:17:53;-0.20;99.90
11126;DHT22;5617;54.046;10.676;2022-12-10T01:19:59;-0.20;99.90
11126;DHT22;5617;54.046;10.676;2022-12-10T01:22:06;-0.10;99.90
11126;DHT22;5617;54.046;10.676;2022-12-10T01:24:13;-0.10;99.90
11126;DHT22;5617;54.046;10.676;2022-12-10T01:26:21;-0.10;99.90
11126;DHT22;5617;54.046;10.676;2022-12-10T01:28:29;-0.10;99.90
11126;DHT22;5617;54.046;10.676;2022-12-10T01:30:38;-0.10;99.90
11126;DHT22;5617;54.046;10.676;2022-12-10T01:32:44;-0.20;99.90
11126;DHT22;5617;54.046;10.676;2022-12-10T01:34:51;-0.20;99.90
11126;DHT22;5617;54.046;10.676;2022-12-10T01:36:58;-0.10;99.90
11126;DHT22;5617;54.046;10.676;2022-12-10T01:39:07;-0.10;99.90
11126;DHT22;5617;54.046;10.676;2022-12-10T01:41:17;-0.20;99.90
11126;DHT22;5617;54.046;10.676;2022-12-10T01:43:24;-0.20;99.90
11126;DHT22;5617;54.046;10.676;2022-12-10T01:45:31;-0.20;99.90
11126;DHT22;5617;54.046;10.676;2022-12-10T01:47:41;-0.20;99.90
11126;DHT22;5617;54.046;10.676;2022-12-10T01:49:48;-0.20;99.90
11126;DHT22;5617;54.046;10.676;2022-12-10T01:51:56;-0.20;99.90
11126;DHT22;5617;54.046;10.676;2022-12-10T01:54:06;-0.20;99.90
11126;DHT22;5617;54.046;10.676;2022-12-10T01:56:15;-0.20;99.90
11126;DHT22;5617;54.046;10.676;2022-12-10T01:58:23;-0.20;99.90
11126;DHT22;5617;54.046;10.676;2022-12-10T02:00:30;-0.20;99.90
11126;DHT22;5617;54.046;10.676;2022-12-10T02:02:44;-0.10;99.90
11126;DHT22;5617;54.046;10.676;2022-12-10T02:05:00;-0.10;99.90
11126;DHT22;5617;54.046;10.676;2022-12-10T02:07:13;-0.10;99.90
11126;DHT22;5617;54.046;10.676;2022-12-10T02:09:34;-0.10;99.90
11126;DHT22;5617;54.046;10.676;2022-12-10T02:11:46;0.00;99.90
11126;DHT22;5617;54.046;10.676;2022-12-10T02:13:56;0.00;99.90
11126;DHT22;5617;54.046;10.676;2022-12-10T02:16:09;0.00;99.90
11126;DHT22;5617;54.046;10.676;2022-12-10T02:18:24;0.10;99.90
11126;DHT22;5617;54.046;10.676;2022-12-10T02:20:35;0.10;99.90
11126;DHT22;5617;54.046;10.676;2022-12-10T02:22:46;0.10;99.90
11126;DHT22;5617;54.046;10.676;2022-12-10T02:24:56;0.20;99.90
11126;DHT22;5617;54.046;10.676;2022-12-10T02:27:10;0.20;99.90
11126;DHT22;5617;54.046;10.676;2022-12-10T02:29:24;0.20;99.90
11126;DHT22;5617;54.046;10.676;2022-12-10T02:31:32;0.30;99.90
11126;DHT22;5617;54.046;10.676;2022-12-10T02:33:50;0.30;99.90
11126;DHT22;5617;54.046;10.676;2022-12-10T02:35:58;0.30;99.90
11126;DHT22;5617;54.046;10.676;2022-12-10T02:38:09;0.30;99.90
11126;DHT22;5617;54.046;10.676;2022-12-10T02:40:19;0.40;99.90
11126;DHT22;5617;54.046;10.676;2022-12-10T02:42:29;0.40;99.90
11126;DHT22;5617;54.046;10.676;2022-12-10T02:44:40;0.40;99.90
11126;DHT22;5617;54.046;10.676;2022-12-10T02:46:49;0.40;99.90
11126;DHT22;5617;54.046;10.676;2022-12-10T02:48:58;0.40;99.90
11126;DHT22;5617;54.046;10.676;2022-12-10T02:51:06;0.40;99.90
11126;DHT22;5617;54.046;10.676;2022-12-10T02:53:14;0.50;99.90
11126;DHT22;5617;54.046;10.676;2022-12-10T02:55:22;0.50;99.90
11126;DHT22;5617;54.046;10.676;2022-12-10T02:57:34;0.50;99.90
11126;DHT22;5617;54.046;10.676;2022-12-10T03:00:14;0.50;99.90
11126;DHT22;5617;54.046;10.676;2022-12-10T03:02:29;0.50;99.90
11126;DHT22;5617;54.046;10.676;2022-12-10T03:04:46;0.50;99.90
11126;DHT22;5617;54.046;10.676;2022-12-10T03:07:02;0.50;99.90
11126;DHT22;5617;54.046;10.676;2022-12-10T03:09:16;0.50;99.90
11126;DHT22;5617;54.046;10.676;2022-12-10T03:11:24;0.50;99.90
11126;DHT22;5617;54.046;10.676;2022-12-10T03:13:35;0.50;99.90
11126;DHT22;5617;54.046;10.676;2022-12-10T03:15:46;0.50;99.90
11126;DHT22;5617;54.046;10.676;2022-12-10T03:17:55;0.50;99.90
11126;DHT22;5617;54.046;10.676;2022-12-10T03:20:04;0.60;99.90
11126;DHT22;5617;54.046;10.676;2022-12-10T03:22:15;0.60;99.90
11126;DHT22;5617;54.046;10.676;2022-12-10T03:24:25;0.60;99.90
11126;DHT22;5617;54.046;10.676;2022-12-10T03:26:33;0.60;99.90
11126;DHT22;5617;54.046;10.676;2022-12-10T03:28:42;0.60;99.90
11126;DHT22;5617;54.046;10.676;2022-12-10T03:30:52;0.50;99.90
11126;DHT22;5617;54.046;10.676;2022-12-10T03:33:00;0.50;99.90
11126;DHT22;5617;54.046;10.676;2022-12-10T03:35:08;0.50;99.90
11126;DHT22;5617;54.046;10.676;2022-12-10T03:37:15;0.40;99.90
11126;DHT22;5617;54.046;10.676;2022-12-10T03:39:22;0.50;99.90
11126;DHT22;5617;54.046;10.676;2022-12-10T03:41:29;0.50;99.90
11126;DHT22;5617;54.046;10.676;2022-12-10T03:43:49;0.50;99.90
11126;DHT22;5617;54.046;10.676;2022-12-10T03:45:58;0.50;99.90
11126;DHT22;5617;54.046;10.676;2022-12-10T03:48:05;0.50;99.90
11126;DHT22;5617;54.046;10.676;2022-12-10T03:50:12;0.50;99.90
11126;DHT22;5617;54.046;10.676;2022-12-10T03:52:18;0.50;99.90
11126;DHT22;5617;54.046;10.676;2022-12-10T03:54:26;0.50;99.90
11126;DHT22;5617;54.046;10.676;2022-12-10T03:56:32;0.50;99.90
11126;DHT22;5617;54.046;10.676;2022-12-10T03:58:39;0.40;99.90
11126;DHT22;5617;54.046;10.676;2022-12-10T04:00:46;0.40;99.90
11126;DHT22;5617;54.046;10.676;2022-12-10T04:02:55;0.40;99.90
11126;DHT22;5617;54.046;10.676;2022-12-10T04:05:01;0.40;99.90
11126;DHT22;5617;54.046;10.676;2022-12-10T04:07:10;0.30;99.90
11126;DHT22;5617;54.046;10.676;2022-12-10T04:09:19;0.30;99.90
11126;DHT22;5617;54.046;10.676;2022-12-10T04:11:26;0.30;99.90
11126;DHT22;5617;54.046;10.676;2022-12-10T04:13:33;0.30;99.90
11126;DHT22;5617;54.046;10.676;2022-12-10T04:15:58;0.30;99.90
11126;DHT22;5617;54.046;10.676;2022-12-10T04:18:24;0.30;99.90
11126;DHT22;5617;54.046;10.676;2022-12-10T04:20:30;0.30;99.90
11126;DHT22;5617;54.046;10.676;2022-12-10T04:22:55;0.20;99.90
11126;DHT22;5617;54.046;10.676;2022-12-10T04:25:19;0.10;99.90
11126;DHT22;5617;54.046;10.676;2022-12-10T04:27:43;0.10;99.90
11126;DHT22;5617;54.046;10.676;2022-12-10T04:29:50;0.00;99.90
11126;DHT22;5617;54.046;10.676;2022-12-10T04:31:58;0.10;99.90
11126;DHT22;5617;54.046;10.676;2022-12-10T04:34:06;0.10;99.90
11126;DHT22;5617;54.046;10.676;2022-12-10T04:36:13;0.10;99.90
11126;DHT22;5617;54.046;10.676;2022-12-10T04:38:20;0.10;99.90
11126;DHT22;5617;54.046;10.676;2022-12-10T04:40:26;0.10;99.90
11126;DHT22;5617;54.046;10.676;2022-12-10T04:42:33;0.10;99.90
11126;DHT22;5617;54.046;10.676;2022-12-10T04:44:40;0.10;99.90
11126;DHT22;5617;54.046;10.676;2022-12-10T04:46:47;0.10;99.90
11126;DHT22;5617;54.046;10.676;2022-12-10T04:48:54;0.10;99.90
11126;DHT22;5617;54.046;10.676;2022-12-10T04:51:02;0.00;99.90
11126;DHT22;5617;54.046;10.676;2022-12-10T04:53:09;0.00;99.90
11126;DHT22;5617;54.046;10.676;2022-12-10T04:55:16;0.00;99.90
11126;DHT22;5617;54.046;10.676;2022-12-10T04:57:23;-0.10;99.90
11126;DHT22;5617;54.046;10.676;2022-12-10T04:59:30;0.00;99.90
11126;DHT22;5617;54.046;10.676;2022-12-10T05:01:37;0.00;99.90
11126;DHT22;5617;54.046;10.676;2022-12-10T05:03:45;0.00;99.90
11126;DHT22;5617;54.046;10.676;2022-12-10T05:05:51;0.10;99.90
11126;DHT22;5617;54.046;10.676;2022-12-10T05:08:00;0.10;99.90
11126;DHT22;5617;54.046;10.676;2022-12-10T05:10:07;0.20;99.90
11126;DHT22;5617;54.046;10.676;2022-12-10T05:12:14;0.20;99.90
11126;DHT22;5617;54.046;10.676;2022-12-10T05:14:22;0.10;99.90
11126;DHT22;5617;54.046;10.676;2022-12-10T05:16:31;0.10;99.90
11126;DHT22;5617;54.046;10.676;2022-12-10T05:18:39;0.10;99.90
11126;DHT22;5617;54.046;10.676;2022-12-10T05:20:46;0.10;99.90
11126;DHT22;5617;54.046;10.676;2022-12-10T05:22:52;0.10;99.90
11126;DHT22;5617;54.046;10.676;2022-12-10T05:25:18;0.10;99.90
11126;DHT22;5617;54.046;10.676;2022-12-10T05:27:25;0.10;99.90
11126;DHT22;5617;54.046;10.676;2022-12-10T05:29:32;0.10;99.90
11126;DHT22;5617;54.046;10.676;2022-12-10T05:31:39;0.20;99.90
11126;DHT22;5617;54.046;10.676;2022-12-10T05:33:46;0.20;99.90
11126;DHT22;5617;54.046;10.676;2022-12-10T05:35:54;0.20;99.90
11126;DHT22;5617;54.046;10.676;2022-12-10T05:38:01;0.20;99.90
11126;DHT22;5617;54.046;10.676;2022-12-10T05:40:10;0.20;99.90
11126;DHT22;5617;54.046;10.676;2022-12-10T05:42:18;0.20;99.90
11126;DHT22;5617;54.046;10.676;2022-12-10T05:44:25;0.20;99.90
11126;DHT22;5617;54.046;10.676;2022-12-10T05:46:33;0.30;99.90
11126;DHT22;5617;54.046;10.676;2022-12-10T05:48:40;0.30;99.90
11126;DHT22;5617;54.046;10.676;2022-12-10T05:50:47;0.20;99.90
11126;DHT22;5617;54.046;10.676;2022-12-10T05:52:54;0.30;99.90
11126;DHT22;5617;54.046;10.676;2022-12-10T05:55:01;0.20;99.90
11126;DHT22;5617;54.046;10.676;2022-12-10T05:57:07;0.20;99.90
11126;DHT22;5617;54.046;10.676;2022-12-10T05:59:18;0.10;99.90
11126;DHT22;5617;54.046;10.676;2022-12-10T06:01:27;0.20;99.90
11126;DHT22;5617;54.046;10.676;2022-12-10T06:03:33;0.10;99.90
11126;DHT22;5617;54.046;10.676;2022-12-10T06:05:41;0.10;99.90
11126;DHT22;5617;54.046;10.676;2022-12-10T06:07:48;0.10;99.90
11126;DHT22;5617;54.046;10.676;2022-12-10T06:09:55;0.20;99.90
11126;DHT22;5617;54.046;10.676;2022-12-10T06:12:02;0.10;99.90
11126;DHT22;5617;54.046;10.676;2022-12-10T06:14:09;0.20;99.90
11126;DHT22;5617;54.046;10.676;2022-12-10T06:16:18;0.10;99.90
11126;DHT22;5617;54.046;10.676;2022-12-10T06:18:24;0.30;99.90
11126;DHT22;5617;54.046;10.676;2022-12-10T06:20:32;0.20;99.90
11126;DHT22;5617;54.046;10.676;2022-12-10T06:22:39;0.10;99.90
11126;DHT22;5617;54.046;10.676;2022-12-10T06:24:45;0.10;99.90
11126;DHT22;5617;54.046;10.676;2022-12-10T06:26:52;0.00;99.90
11126;DHT22;5617;54.046;10.676;2022-12-10T06:28:59;0.00;99.90
11126;DHT22;5617;54.046;10.676;2022-12-10T06:31:07;0.00;99.90
11126;DHT22;5617;54.046;10.676;2022-12-10T06:33:15;-0.10;99.90
11126;DHT22;5617;54.046;10.676;2022-12-10T06:35:24;-0.20;99.90
11126;DHT22;5617;54.046;10.676;2022-12-10T06:37:31;-0.10;99.90
11126;DHT22;5617;54.046;10.676;2022-12-10T06:39:38;-0.10;99.90
11126;DHT22;5617;54.046;10.676;2022-12-10T06:41:45;-0.10;99.90
11126;DHT22;5617;54.046;10.676;2022-12-10T06:43:52;-0.10;99.90
11126;DHT22;5617;54.046;10.676;2022-12-10T06:45:58;-0.10;99.90
11126;DHT22;5617;54.046;10.676;2022-12-10T06:48:06;-0.10;99.90
11126;DHT22;5617;54.046;10.676;2022-12-10T06:50:14;-0.10;99.90
11126;DHT22;5617;54.046;10.676;2022-12-10T06:52:21;-0.10;99.90
11126;DHT22;5617;54.046;10.676;2022-12-10T06:54:28;-0.10;99.90
11126;DHT22;5617;54.046;10.676;2022-12-10T06:56:35;-0.10;99.90
11126;DHT22;5617;54.046;10.676;2022-12-10T06:58:42;-0.10;99.90
11126;DHT22;5617;54.046;10.676;2022-12-10T07:00:50;-0.10;99.90
11126;DHT22;5617;54.046;10.676;2022-12-10T07:02:56;-0.10;99.90
11126;DHT22;5617;54.046;10.676;2022-12-10T07:05:04;-0.10;99.90
11126;DHT22;5617;54.046;10.676;2022-12-10T07:07:12;-0.10;99.90
11126;DHT22;5617;54.046;10.676;2022-12-10T07:09:19;0.00;99.90
11126;DHT22;5617;54.046;10.676;2022-12-10T07:11:26;-0.10;99.90
11126;DHT22;5617;54.046;10.676;2022-12-10T07:13:33;0.00;99.90
11126;DHT22;5617;54.046;10.676;2022-12-10T07:15:40;-0.10;99.90
11126;DHT22;5617;54.046;10.676;2022-12-10T07:17:47;-0.10;99.90
11126;DHT22;5617;54.046;10.676;2022-12-10T07:19:54;-0.10;99.90
11126;DHT22;5617;54.046;10.676;2022-12-10T07:22:01;-0.10;99.90
11126;DHT22;5617;54.046;10.676;2022-12-10T07:24:12;-0.10;99.90
11126;DHT22;5617;54.046;10.676;2022-12-10T07:26:21;-0.20;99.90
11126;DHT22;5617;54.046;10.676;2022-12-10T07:28:28;-0.20;99.90
11126;DHT22;5617;54.046;10.676;2022-12-10T07:30:36;-0.10;99.90
11126;DHT22;5617;54.046;10.676;2022-12-10T07:32:45;-0.10;99.90
11126;DHT22;5617;54.046;10.676;2022-12-10T07:34:53;-0.10;99.90
11126;DHT22;5617;54.046;10.676;2022-12-10T07:37:00;-0.10;99.90
11126;DHT22;5617;54.046;10.676;2022-12-10T07:39:10;-0.10;99.90
11126;DHT22;5617;54.046;10.676;2022-12-10T07:41:23;-0.20;99.90
11126;DHT22;5617;54.046;10.676;2022-12-10T07:43:30;-0.20;99.90
11126;DHT22;5617;54.046;10.676;2022-12-10T07:45:37;-0.20;99.90
11126;DHT22;5617;54.046;10.676;2022-12-10T07:47:44;-0.10;99.90
11126;DHT22;5617;54.046;10.676;2022-12-10T07:49:52;-0.10;99.90
11126;DHT22;5617;54.046;10.676;2022-12-10T07:51:59;-0.10;99.90
11126;DHT22;5617;54.046;10.676;2022-12-10T07:54:06;-0.10;99.90
11126;DHT22;5617;54.046;10.676;2022-12-10T07:56:15;-0.20;99.90
11126;DHT22;5617;54.046;10.676;2022-12-10T07:58:22;-0.20;99.90
11126;DHT22;5617;54.046;10.676;2022-12-10T08:00:29;-0.10;99.90
11126;DHT22;5617;54.046;10.676;2022-12-10T08:02:36;-0.20;99.90
11126;DHT22;5617;54.046;10.676;2022-12-10T08:04:44;-0.10;99.90
11126;DHT22;5617;54.046;10.676;2022-12-10T08:06:54;-0.10;99.90
11126;DHT22;5617;54.046;10.676;2022-12-10T08:09:01;-0.10;99.90
11126;DHT22;5617;54.046;10.676;2022-12-10T08:11:08;-0.10;99.90
11126;DHT22;5617;54.046;10.676;2022-12-10T08:13:16;-0.10;99.90
11126;DHT22;5617;54.046;10.676;2022-12-10T08:15:23;-0.10;99.90
11126;DHT22;5617;54.046;10.676;2022-12-10T08:17:30;0.00;99.90
11126;DHT22;5617;54.046;10.676;2022-12-10T08:19:36;0.00;99.90
11126;DHT22;5617;54.046;10.676;2022-12-10T08:21:43;-0.10;99.90
11126;DHT22;5617;54.046;10.676;2022-12-10T08:23:50;0.00;99.90
11126;DHT22;5617;54.046;10.676;2022-12-10T08:25:57;0.00;99.90
11126;DHT22;5617;54.046;10.676;2022-12-10T08:28:04;0.00;99.90
11126;DHT22;5617;54.046;10.676;2022-12-10T08:30:13;-0.10;99.90
11126;DHT22;5617;54.046;10.676;2022-12-10T08:32:23;0.00;99.90
11126;DHT22;5617;54.046;10.676;2022-12-10T08:34:30;0.00;99.90
11126;DHT22;5617;54.046;10.676;2022-12-10T08:36:37;0.00;99.90
11126;DHT22;5617;54.046;10.676;2022-12-10T08:38:45;0.00;99.90
11126;DHT22;5617;54.046;10.676;2022-12-10T08:40:52;0.10;99.90
11126;DHT22;5617;54.046;10.676;2022-12-10T08:42:58;0.10;99.90
11126;DHT22;5617;54.046;10.676;2022-12-10T08:45:06;0.10;99.90
11126;DHT22;5617;54.046;10.676;2022-12-10T08:47:15;0.10;99.90
11126;DHT22;5617;54.046;10.676;2022-12-10T08:49:23;0.10;99.90
11126;DHT22;5617;54.046;10.676;2022-12-10T08:51:30;0.10;99.90
11126;DHT22;5617;54.046;10.676;2022-12-10T08:53:37;0.10;99.90
11126;DHT22;5617;54.046;10.676;2022-12-10T08:55:44;0.10;99.90
11126;DHT22;5617;54.046;10.676;2022-12-10T08:57:51;0.10;99.90
11126;DHT22;5617;54.046;10.676;2022-12-10T08:59:57;0.10;99.90
11126;DHT22;5617;54.046;10.676;2022-12-10T09:02:05;0.10;99.90
11126;DHT22;5617;54.046;10.676;2022-12-10T09:04:13;0.10;99.90
11126;DHT22;5617;54.046;10.676;2022-12-10T09:06:22;0.10;99.90
11126;DHT22;5617;54.046;10.676;2022-12-10T09:08:30;0.10;99.90
11126;DHT22;5617;54.046;10.676;2022-12-10T09:10:38;0.10;99.90
11126;DHT22;5617;54.046;10.676;2022-12-10T09:12:44;0.20;99.90
11126;DHT22;5617;54.046;10.676;2022-12-10T09:14:51;0.20;99.90
11126;DHT22;5617;54.046;10.676;2022-12-10T09:16:58;0.20;99.90
11126;DHT22;5617;54.046;10.676;2022-12-10T09:19:05;0.20;99.90
11126;DHT22;5617;54.046;10.676;2022-12-10T09:21:16;0.20;99.90
11126;DHT22;5617;54.046;10.676;2022-12-10T09:23:24;0.10;99.90
11126;DHT22;5617;54.046;10.676;2022-12-10T09:25:31;0.10;99.90
11126;DHT22;5617;54.046;10.676;2022-12-10T09:27:38;0.10;99.90
11126;DHT22;5617;54.046;10.676;2022-12-10T09:29:45;0.10;99.90
11126;DHT22;5617;54.046;10.676;2022-12-10T09:31:52;0.10;99.90
11126;DHT22;5617;54.046;10.676;2022-12-10T09:33:59;0.10;99.90
11126;DHT22;5617;54.046;10.676;2022-12-10T09:36:08;0.10;99.90
11126;DHT22;5617;54.046;10.676;2022-12-10T09:38:16;0.10;99.90
11126;DHT22;5617;54.046;10.676;2022-12-10T09:40:29;0.10;99.90
11126;DHT22;5617;54.046;10.676;2022-12-10T09:42:44;0.10;99.90
11126;DHT22;5617;54.046;10.676;2022-12-10T09:45:01;0.10;99.90
11126;DHT22;5617;54.046;10.676;2022-12-10T09:47:10;0.10;99.90
11126;DHT22;5617;54.046;10.676;2022-12-10T09:49:23;0.10;99.90
11126;DHT22;5617;54.046;10.676;2022-12-10T09:51:35;0.10;99.90
11126;DHT22;5617;54.046;10.676;2022-12-10T09:53:45;0.10;99.90
11126;DHT22;5617;54.046;10.676;2022-12-10T09:55:54;0.10;99.90
11126;DHT22;5617;54.046;10.676;2022-12-10T09:58:03;0.10;99.90
11126;DHT22;5617;54.046;10.676;2022-12-10T10:00:19;0.20;99.90
11126;DHT22;5617;54.046;10.676;2022-12-10T10:02:29;0.20;99.90
11126;DHT22;5617;54.046;10.676;2022-12-10T10:04:36;0.20;99.90
11126;DHT22;5617;54.046;10.676;2022-12-10T10:06:43;0.30;99.90
11126;DHT22;5617;54.046;10.676;2022-12-10T10:08:54;0.30;99.90
11126;DHT22;5617;54.046;10.676;2022-12-10T10:11:04;0.30;99.90
11126;DHT22;5617;54.046;10.676;2022-12-10T10:13:15;0.30;99.90
11126;DHT22;5617;54.046;10.676;2022-12-10T10:15:28;0.30;99.90
11126;DHT22;5617;54.046;10.676;2022-12-10T10:17:37;0.30;99.90
11126;DHT22;5617;54.046;10.676;2022-12-10T10:19:45;0.20;99.90
11126;DHT22;5617;54.046;10.676;2022-12-10T10:21:52;0.20;99.90
11126;DHT22;5617;54.046;10.676;2022-12-10T10:24:02;0.10;99.90
11126;DHT22;5617;54.046;10.676;2022-12-10T10:26:09;0.10;99.90
11126;DHT22;5617;54.046;10.676;2022-12-10T10:28:18;0.10;99.90
11126;DHT22;5617;54.046;10.676;2022-12-10T10:30:25;0.10;99.90
11126;DHT22;5617;54.046;10.676;2022-12-10T10:32:45;0.10;99.90
11126;DHT22;5617;54.046;10.676;2022-12-10T10:34:55;0.20;99.90
11126;DHT22;5617;54.046;10.676;2022-12-10T10:37:02;0.20;99.90
11126;DHT22;5617;54.046;10.676;2022-12-10T10:39:21;0.20;99.90
11126;DHT22;5617;54.046;10.676;2022-12-10T10:41:35;0.20;99.90
11126;DHT22;5617;54.046;10.676;2022-12-10T10:43:44;0.20;99.90
11126;DHT22;5617;54.046;10.676;2022-12-10T10:45:54;0.20;99.90
11126;DHT22;5617;54.046;10.676;2022-12-10T10:48:06;0.20;99.90
11126;DHT22;5617;54.046;10.676;2022-12-10T10:50:23;0.20;99.90
11126;DHT22;5617;54.046;10.676;2022-12-10T10:52:36;0.20;99.90
11126;DHT22;5617;54.046;10.676;2022-12-10T10:54:46;0.20;99.90
11126;DHT22;5617;54.046;10.676;2022-12-10T10:56:54;0.20;99.90
11126;DHT22;5617;54.046;10.676;2022-12-10T10:59:03;0.20;99.90
11126;DHT22;5617;54.046;10.676;2022-12-10T11:01:10;0.20;99.90
11126;DHT22;5617;54.046;10.676;2022-12-10T11:03:17;0.20;99.90
11126;DHT22;5617;54.046;10.676;2022-12-10T11:05:26;0.10;99.90
11126;DHT22;5617;54.046;10.676;2022-12-10T11:07:37;0.10;99.90
11126;DHT22;5617;54.046;10.676;2022-12-10T11:09:45;0.10;99.90
11126;DHT22;5617;54.046;10.676;2022-12-10T11:11:59;0.00;99.90
11126;DHT22;5617;54.046;10.676;2022-12-10T11:14:15;0.00;99.90
11126;DHT22;5617;54.046;10.676;2022-12-10T11:16:24;0.00;99.90
11126;DHT22;5617;54.046;10.676;2022-12-10T11:18:33;0.00;99.90
11126;DHT22;5617;54.046;10.676;2022-12-10T11:20:42;0.00;99.90
11126;DHT22;5617;54.046;10.676;2022-12-10T11:23:08;0.10;99.90
11126;DHT22;5617;54.046;10.676;2022-12-10T11:25:17;0.20;99.90
11126;DHT22;5617;54.046;10.676;2022-12-10T11:27:48;0.10;99.90
11126;DHT22;5617;54.046;10.676;2022-12-10T11:30:00;0.10;99.90
11126;DHT22;5617;54.046;10.676;2022-12-10T11:32:23;0.10;99.90
11126;DHT22;5617;54.046;10.676;2022-12-10T11:34:41;0.10;99.90
11126;DHT22;5617;54.046;10.676;2022-12-10T11:36:59;0.00;99.90
11126;DHT22;5617;54.046;10.676;2022-12-10T11:39:20;0.00;99.90
11126;DHT22;5617;54.046;10.676;2022-12-10T11:41:34;0.00;99.90
11126;DHT22;5617;54.046;10.676;2022-12-10T11:43:50;0.10;99.90
11126;DHT22;5617;54.046;10.676;2022-12-10T11:46:07;0.10;99.90
11126;DHT22;5617;54.046;10.676;2022-12-10T11:48:30;0.20;99.90
11126;DHT22;5617;54.046;10.676;2022-12-10T11:50:44;0.20;99.90
11126;DHT22;5617;54.046;10.676;2022-12-10T11:53:13;0.20;99.90
11126;DHT22;5617;54.046;10.676;2022-12-10T11:55:29;0.20;99.90
11126;DHT22;5617;54.046;10.676;2022-12-10T11:57:46;0.20;99.90
11126;DHT22;5617;54.046;10.676;2022-12-10T12:00:00;0.20;99.90
11126;DHT22;5617;54.046;10.676;2022-12-10T12:02:45;0.20;99.90
11126;DHT22;5617;54.046;10.676;2022-12-10T12:05:12;0.20;99.90
11126;DHT22;5617;54.046;10.676;2022-12-10T12:07:33;0.30;99.90
11126;DHT22;5617;54.046;10.676;2022-12-10T12:09:50;0.30;99.90
11126;DHT22;5617;54.046;10.676;2022-12-10T12:12:11;0.30;99.90
11126;DHT22;5617;54.046;10.676;2022-12-10T12:14:24;0.30;99.90
11126;DHT22;5617;54.046;10.676;2022-12-10T12:16:37;0.40;99.90
11126;DHT22;5617;54.046;10.676;2022-12-10T12:18:51;0.30;99.90
11126;DHT22;5617;54.046;10.676;2022-12-10T12:21:03;0.30;99.90
11126;DHT22;5617;54.046;10.676;2022-12-10T12:23:15;0.30;99.90
11126;DHT22;5617;54.046;10.676;2022-12-10T12:25:27;0.20;99.90
11126;DHT22;5617;54.046;10.676;2022-12-10T12:27:38;0.20;99.90
11126;DHT22;5617;54.046;10.676;2022-12-10T12:29:54;0.20;99.90
11126;DHT22;5617;54.046;10.676;2022-12-10T12:32:10;0.20;99.90
11126;DHT22;5617;54.046;10.676;2022-12-10T12:34:23;0.10;99.90
11126;DHT22;5617;54.046;10.676;2022-12-10T12:36:34;0.20;99.90
11126;DHT22;5617;54.046;10.676;2022-12-10T12:38:45;0.10;99.90
11126;DHT22;5617;54.046;10.676;2022-12-10T12:40:54;0.10;99.90
11126;DHT22;5617;54.046;10.676;2022-12-10T12:43:07;0.10;99.90
11126;DHT22;5617;54.046;10.676;2022-12-10T12:45:20;0.10;99.90
11126;DHT22;5617;54.046;10.676;2022-12-10T12:47:34;0.10;99.90
11126;DHT22;5617;54.046;10.676;2022-12-10T12:49:45;0.10;99.90
11126;DHT22;5617;54.046;10.676;2022-12-10T12:51:58;0.10;99.90
11126;DHT22;5617;54.046;10.676;2022-12-10T12:54:09;0.10;99.90
11126;DHT22;5617;54.046;10.676;2022-12-10T12:56:23;0.10;99.90
11126;DHT22;5617;54.046;10.676;2022-12-10T12:58:37;0.10;99.90
11126;DHT22;5617;54.046;10.676;2022-12-10T13:00:54;0.10;99.90
11126;DHT22;5617;54.046;10.676;2022-12-10T13:03:08;0.10;99.90
11126;DHT22;5617;54.046;10.676;2022-12-10T13:05:23;0.10;99.90
11126;DHT22;5617;54.046;10.676;2022-12-10T13:07:33;0.10;99.90
11126;DHT22;5617;54.046;10.676;2022-12-10T13:09:43;0.10;99.90
11126;DHT22;5617;54.046;10.676;2022-12-10T13:12:27;0.10;99.90
11126;DHT22;5617;54.046;10.676;2022-12-10T13:14:36;0.10;99.90
11126;DHT22;5617;54.046;10.676;2022-12-10T13:17:30;0.10;99.90
11126;DHT22;5617;54.046;10.676;2022-12-10T13:19:40;0.10;99.90
11126;DHT22;5617;54.046;10.676;2022-12-10T13:22:01;0.00;99.90
11126;DHT22;5617;54.046;10.676;2022-12-10T13:24:11;0.00;99.90
11126;DHT22;5617;54.046;10.676;2022-12-10T13:26:26;0.10;99.90
11126;DHT22;5617;54.046;10.676;2022-12-10T13:28:48;0.00;99.90
11126;DHT22;5617;54.046;10.676;2022-12-10T13:31:21;0.10;99.90
11126;DHT22;5617;54.046;10.676;2022-12-10T13:33:45;0.00;99.90
11126;DHT22;5617;54.046;10.676;2022-12-10T13:35:57;0.00;99.90
11126;DHT22;5617;54.046;10.676;2022-12-10T13:38:15;0.00;99.90
11126;DHT22;5617;54.046;10.676;2022-12-10T13:40:26;0.00;99.90
11126;DHT22;5617;54.046;10.676;2022-12-10T13:42:34;0.00;99.90
11126;DHT22;5617;54.046;10.676;2022-12-10T13:45:01;-0.10;99.90
11126;DHT22;5617;54.046;10.676;2022-12-10T13:47:25;-0.10;99.90
11126;DHT22;5617;54.046;10.676;2022-12-10T13:49:47;-0.10;99.90
11126;DHT22;5617;54.046;10.676;2022-12-10T13:51:59;0.00;99.90
11126;DHT22;5617;54.046;10.676;2022-12-10T13:56:55;-0.10;99.90